sensor_id;sensor_type;location;lat;lon;timestamp;P1;durP1;ratioP1;P2;durP2;ratioP2
10465;SDS011;5280;42.600;23.556;2022-10-15T00:01:41;5.13;;;4.20;;
10465;SDS011;5280;42.600;23.556;2022-10-15T00:04:07;7.03;;;4.67;;
10465;SDS011;5280;42.600;23.556;2022-10-15T00:06:38;4.30;;;3.90;;
10465;SDS011;5280;42.600;23.556;2022-10-15T00:09:04;5.30;;;4.80;;
10465;SDS011;5280;42.600;23.556;2022-10-15T00:11:33;4.73;;;4.23;;
10465;SDS011;5280;42.600;23.556;2022-10-15T00:14:00;4.23;;;3.83;;
10465;SDS011;5280;42.600;23.556;2022-10-15T00:16:27;4.40;;;4.00;;
10465;SDS011;5280;42.600;23.556;2022-10-15T00:18:55;5.13;;;4.60;;
10465;SDS011;5280;42.600;23.556;2022-10-15T00:21:22;5.40;;;4.30;;
10465;SDS011;5280;42.600;23.556;2022-10-15T00:23:50;4.10;;;3.80;;
10465;SDS011;5280;42.600;23.556;2022-10-15T00:26:18;4.10;;;3.70;;
10465;SDS011;5280;42.600;23.556;2022-10-15T00:28:48;4.30;;;3.83;;
10465;SDS011;5280;42.600;23.556;2022-10-15T00:31:16;4.57;;;3.80;;
10465;SDS011;5280;42.600;23.556;2022-10-15T00:33:45;4.97;;;4.37;;
10465;SDS011;5280;42.600;23.556;2022-10-15T00:36:14;5.73;;;3.37;;
10465;SDS011;5280;42.600;23.556;2022-10-15T00:38:43;3.50;;;3.30;;
10465;SDS011;5280;42.600;23.556;2022-10-15T00:41:12;4.00;;;3.70;;
10465;SDS011;5280;42.600;23.556;2022-10-15T00:43:41;4.40;;;4.00;;
10465;SDS011;5280;42.600;23.556;2022-10-15T00:46:17;3.20;;;3.00;;
10465;SDS011;5280;42.600;23.556;2022-10-15T00:48:50;3.90;;;3.17;;
10465;SDS011;5280;42.600;23.556;2022-10-15T00:51:20;3.23;;;2.93;;
10465;SDS011;5280;42.600;23.556;2022-10-15T00:53:53;5.53;;;3.13;;
10465;SDS011;5280;42.600;23.556;2022-10-15T00:56:20;3.33;;;3.03;;
10465;SDS011;5280;42.600;23.556;2022-10-15T00:58:49;4.07;;;3.00;;
10465;SDS011;5280;42.600;23.556;2022-10-15T01:01:20;3.40;;;3.10;;
10465;SDS011;5280;42.600;23.556;2022-10-15T01:03:47;4.00;;;3.10;;
10465;SDS011;5280;42.600;23.556;2022-10-15T01:06:14;3.13;;;2.77;;
10465;SDS011;5280;42.600;23.556;2022-10-15T01:08:41;3.30;;;3.03;;
10465;SDS011;5280;42.600;23.556;2022-10-15T01:11:11;6.17;;;2.47;;
10465;SDS011;5280;42.600;23.556;2022-10-15T01:13:56;3.40;;;3.10;;
10465;SDS011;5280;42.600;23.556;2022-10-15T01:16:30;3.47;;;2.87;;
10465;SDS011;5280;42.600;23.556;2022-10-15T01:19:03;4.70;;;3.03;;
10465;SDS011;5280;42.600;23.556;2022-10-15T01:21:37;3.20;;;2.90;;
10465;SDS011;5280;42.600;23.556;2022-10-15T01:24:21;2.90;;;2.70;;
10465;SDS011;5280;42.600;23.556;2022-10-15T01:27:14;3.50;;;2.57;;
10465;SDS011;5280;42.600;23.556;2022-10-15T01:29:58;3.30;;;3.00;;
10465;SDS011;5280;42.600;23.556;2022-10-15T01:33:06;4.03;;;3.07;;
10465;SDS011;5280;42.600;23.556;2022-10-15T01:35:52;3.47;;;2.97;;
10465;SDS011;5280;42.600;23.556;2022-10-15T01:38:27;6.43;;;3.03;;
10465;SDS011;5280;42.600;23.556;2022-10-15T01:41:08;4.47;;;3.00;;
10465;SDS011;5280;42.600;23.556;2022-10-15T01:43:38;3.13;;;2.87;;
10465;SDS011;5280;42.600;23.556;2022-10-15T01:46:11;3.50;;;2.53;;
10465;SDS011;5280;42.600;23.556;2022-10-15T01:48:47;3.20;;;2.83;;
10465;SDS011;5280;42.600;23.556;2022-10-15T01:51:18;3.90;;;3.03;;
10465;SDS011;5280;42.600;23.556;2022-10-15T01:53:49;4.67;;;3.00;;
10465;SDS011;5280;42.600;23.556;2022-10-15T01:56:19;3.43;;;3.10;;
10465;SDS011;5280;42.600;23.556;2022-10-15T01:58:48;4.80;;;3.53;;
10465;SDS011;5280;42.600;23.556;2022-10-15T02:01:18;2.97;;;2.67;;
10465;SDS011;5280;42.600;23.556;2022-10-15T02:03:47;4.10;;;2.80;;
10465;SDS011;5280;42.600;23.556;2022-10-15T02:06:16;3.10;;;2.80;;
10465;SDS011;5280;42.600;23.556;2022-10-15T02:08:52;4.40;;;2.93;;
10465;SDS011;5280;42.600;23.556;2022-10-15T02:11:25;3.77;;;2.70;;
10465;SDS011;5280;42.600;23.556;2022-10-15T02:13:55;3.17;;;2.87;;
10465;SDS011;5280;42.600;23.556;2022-10-15T02:16:28;4.10;;;3.20;;
10465;SDS011;5280;42.600;23.556;2022-10-15T02:19:04;4.80;;;3.43;;
10465;SDS011;5280;42.600;23.556;2022-10-15T02:21:37;6.17;;;4.70;;
10465;SDS011;5280;42.600;23.556;2022-10-15T02:24:09;11.17;;;9.23;;
10465;SDS011;5280;42.600;23.556;2022-10-15T02:26:40;6.77;;;6.17;;
10465;SDS011;5280;42.600;23.556;2022-10-15T02:29:09;5.10;;;4.70;;
10465;SDS011;5280;42.600;23.556;2022-10-15T02:31:41;8.47;;;6.23;;
10465;SDS011;5280;42.600;23.556;2022-10-15T02:34:12;19.90;;;16.20;;
10465;SDS011;5280;42.600;23.556;2022-10-15T02:36:42;29.03;;;24.03;;
10465;SDS011;5280;42.600;23.556;2022-10-15T02:39:11;17.50;;;15.27;;
10465;SDS011;5280;42.600;23.556;2022-10-15T02:41:42;14.97;;;12.73;;
10465;SDS011;5280;42.600;23.556;2022-10-15T02:44:10;26.20;;;21.13;;
10465;SDS011;5280;42.600;23.556;2022-10-15T02:46:36;23.10;;;18.90;;
10465;SDS011;5280;42.600;23.556;2022-10-15T02:49:04;9.20;;;8.20;;
10465;SDS011;5280;42.600;23.556;2022-10-15T02:51:32;5.63;;;5.07;;
10465;SDS011;5280;42.600;23.556;2022-10-15T02:54:01;4.37;;;3.90;;
10465;SDS011;5280;42.600;23.556;2022-10-15T02:56:29;5.17;;;3.57;;
10465;SDS011;5280;42.600;23.556;2022-10-15T02:58:56;4.13;;;3.83;;
10465;SDS011;5280;42.600;23.556;2022-10-15T03:01:23;4.43;;;3.90;;
10465;SDS011;5280;42.600;23.556;2022-10-15T03:03:49;5.97;;;3.77;;
10465;SDS011;5280;42.600;23.556;2022-10-15T03:06:16;4.23;;;3.27;;
10465;SDS011;5280;42.600;23.556;2022-10-15T03:08:44;3.83;;;3.40;;
10465;SDS011;5280;42.600;23.556;2022-10-15T03:11:11;4.10;;;3.70;;
10465;SDS011;5280;42.600;23.556;2022-10-15T03:13:38;4.60;;;3.53;;
10465;SDS011;5280;42.600;23.556;2022-10-15T03:16:06;4.17;;;3.60;;
10465;SDS011;5280;42.600;23.556;2022-10-15T03:18:34;3.17;;;2.97;;
10465;SDS011;5280;42.600;23.556;2022-10-15T03:21:01;4.03;;;3.70;;
10465;SDS011;5280;42.600;23.556;2022-10-15T03:23:28;4.33;;;3.57;;
10465;SDS011;5280;42.600;23.556;2022-10-15T03:25:56;3.57;;;3.30;;
10465;SDS011;5280;42.600;23.556;2022-10-15T03:28:23;4.03;;;3.40;;
10465;SDS011;5280;42.600;23.556;2022-10-15T03:30:50;4.13;;;3.40;;
10465;SDS011;5280;42.600;23.556;2022-10-15T03:33:17;3.97;;;3.53;;
10465;SDS011;5280;42.600;23.556;2022-10-15T03:35:44;4.33;;;3.80;;
10465;SDS011;5280;42.600;23.556;2022-10-15T03:38:11;4.13;;;3.73;;
10465;SDS011;5280;42.600;23.556;2022-10-15T03:40:37;3.60;;;3.30;;
10465;SDS011;5280;42.600;23.556;2022-10-15T03:43:05;4.37;;;3.30;;
10465;SDS011;5280;42.600;23.556;2022-10-15T03:45:32;3.80;;;3.40;;
10465;SDS011;5280;42.600;23.556;2022-10-15T03:47:59;4.33;;;3.50;;
10465;SDS011;5280;42.600;23.556;2022-10-15T03:50:26;4.73;;;3.20;;
10465;SDS011;5280;42.600;23.556;2022-10-15T03:52:52;3.70;;;3.40;;
10465;SDS011;5280;42.600;23.556;2022-10-15T03:55:20;5.23;;;3.50;;
10465;SDS011;5280;42.600;23.556;2022-10-15T03:57:46;3.97;;;3.57;;
10465;SDS011;5280;42.600;23.556;2022-10-15T04:00:15;5.27;;;3.70;;
10465;SDS011;5280;42.600;23.556;2022-10-15T04:02:42;3.90;;;3.47;;
10465;SDS011;5280;42.600;23.556;2022-10-15T04:05:09;4.03;;;3.47;;
10465;SDS011;5280;42.600;23.556;2022-10-15T04:07:36;4.07;;;3.20;;
10465;SDS011;5280;42.600;23.556;2022-10-15T04:10:03;5.93;;;3.60;;
10465;SDS011;5280;42.600;23.556;2022-10-15T04:12:30;6.57;;;3.57;;
10465;SDS011;5280;42.600;23.556;2022-10-15T04:14:56;4.97;;;3.50;;
10465;SDS011;5280;42.600;23.556;2022-10-15T04:17:25;3.90;;;3.50;;
10465;SDS011;5280;42.600;23.556;2022-10-15T04:19:51;6.20;;;3.93;;
10465;SDS011;5280;42.600;23.556;2022-10-15T04:22:19;4.50;;;3.63;;
10465;SDS011;5280;42.600;23.556;2022-10-15T04:24:46;3.93;;;3.53;;
10465;SDS011;5280;42.600;23.556;2022-10-15T04:27:12;5.27;;;4.13;;
10465;SDS011;5280;42.600;23.556;2022-10-15T04:29:39;3.60;;;3.30;;
10465;SDS011;5280;42.600;23.556;2022-10-15T04:32:06;4.83;;;3.70;;
10465;SDS011;5280;42.600;23.556;2022-10-15T04:34:34;3.87;;;3.50;;
10465;SDS011;5280;42.600;23.556;2022-10-15T04:37:03;3.93;;;3.53;;
10465;SDS011;5280;42.600;23.556;2022-10-15T04:39:29;5.03;;;3.60;;
10465;SDS011;5280;42.600;23.556;2022-10-15T04:41:57;5.57;;;4.30;;
10465;SDS011;5280;42.600;23.556;2022-10-15T04:44:23;4.57;;;3.80;;
10465;SDS011;5280;42.600;23.556;2022-10-15T04:46:51;5.33;;;3.80;;
10465;SDS011;5280;42.600;23.556;2022-10-15T04:49:17;5.10;;;3.93;;
10465;SDS011;5280;42.600;23.556;2022-10-15T04:51:46;4.60;;;4.07;;
10465;SDS011;5280;42.600;23.556;2022-10-15T04:54:13;4.33;;;3.93;;
10465;SDS011;5280;42.600;23.556;2022-10-15T04:56:40;4.80;;;3.90;;
10465;SDS011;5280;42.600;23.556;2022-10-15T04:59:07;4.57;;;4.17;;
10465;SDS011;5280;42.600;23.556;2022-10-15T05:01:34;5.10;;;3.80;;
10465;SDS011;5280;42.600;23.556;2022-10-15T05:04:01;5.40;;;3.97;;
10465;SDS011;5280;42.600;23.556;2022-10-15T05:06:27;4.20;;;3.80;;
10465;SDS011;5280;42.600;23.556;2022-10-15T05:08:56;4.47;;;3.77;;
10465;SDS011;5280;42.600;23.556;2022-10-15T05:11:23;4.83;;;3.80;;
10465;SDS011;5280;42.600;23.556;2022-10-15T05:13:53;4.73;;;4.03;;
10465;SDS011;5280;42.600;23.556;2022-10-15T05:16:22;7.67;;;3.83;;
10465;SDS011;5280;42.600;23.556;2022-10-15T05:18:51;5.07;;;4.57;;
10465;SDS011;5280;42.600;23.556;2022-10-15T05:21:20;6.67;;;4.53;;
10465;SDS011;5280;42.600;23.556;2022-10-15T05:23:47;5.27;;;4.77;;
10465;SDS011;5280;42.600;23.556;2022-10-15T05:26:16;9.97;;;5.77;;
10465;SDS011;5280;42.600;23.556;2022-10-15T05:28:46;16.40;;;12.43;;
10465;SDS011;5280;42.600;23.556;2022-10-15T05:31:14;8.87;;;6.20;;
10465;SDS011;5280;42.600;23.556;2022-10-15T05:33:41;11.93;;;8.97;;
10465;SDS011;5280;42.600;23.556;2022-10-15T05:36:09;7.87;;;7.07;;
10465;SDS011;5280;42.600;23.556;2022-10-15T05:38:37;8.00;;;6.10;;
10465;SDS011;5280;42.600;23.556;2022-10-15T05:41:04;8.07;;;5.13;;
10465;SDS011;5280;42.600;23.556;2022-10-15T05:43:32;8.17;;;6.10;;
10465;SDS011;5280;42.600;23.556;2022-10-15T05:45:59;6.97;;;4.53;;
10465;SDS011;5280;42.600;23.556;2022-10-15T05:48:26;6.23;;;4.67;;
10465;SDS011;5280;42.600;23.556;2022-10-15T05:50:56;5.00;;;4.50;;
10465;SDS011;5280;42.600;23.556;2022-10-15T05:53:26;6.13;;;4.47;;
10465;SDS011;5280;42.600;23.556;2022-10-15T05:55:53;6.47;;;4.20;;
10465;SDS011;5280;42.600;23.556;2022-10-15T05:58:19;7.13;;;6.50;;
10465;SDS011;5280;42.600;23.556;2022-10-15T06:00:53;7.67;;;6.97;;
10465;SDS011;5280;42.600;23.556;2022-10-15T06:03:20;10.70;;;6.80;;
10465;SDS011;5280;42.600;23.556;2022-10-15T06:05:46;5.97;;;5.00;;
10465;SDS011;5280;42.600;23.556;2022-10-15T06:08:16;6.53;;;5.43;;
10465;SDS011;5280;42.600;23.556;2022-10-15T06:10:44;5.47;;;4.93;;
10465;SDS011;5280;42.600;23.556;2022-10-15T06:13:11;6.10;;;4.87;;
10465;SDS011;5280;42.600;23.556;2022-10-15T06:15:39;8.63;;;7.00;;
10465;SDS011;5280;42.600;23.556;2022-10-15T06:18:08;7.07;;;6.37;;
10465;SDS011;5280;42.600;23.556;2022-10-15T06:20:35;6.90;;;5.10;;
10465;SDS011;5280;42.600;23.556;2022-10-15T06:23:04;8.47;;;5.33;;
10465;SDS011;5280;42.600;23.556;2022-10-15T06:25:32;5.87;;;4.90;;
10465;SDS011;5280;42.600;23.556;2022-10-15T06:27:59;5.07;;;4.43;;
10465;SDS011;5280;42.600;23.556;2022-10-15T06:30:27;5.07;;;4.57;;
10465;SDS011;5280;42.600;23.556;2022-10-15T06:32:55;6.63;;;5.17;;
10465;SDS011;5280;42.600;23.556;2022-10-15T06:35:23;6.43;;;4.60;;
10465;SDS011;5280;42.600;23.556;2022-10-15T06:37:51;6.33;;;4.60;;
10465;SDS011;5280;42.600;23.556;2022-10-15T06:40:18;6.13;;;5.53;;
10465;SDS011;5280;42.600;23.556;2022-10-15T06:42:45;6.10;;;4.87;;
10465;SDS011;5280;42.600;23.556;2022-10-15T06:45:12;6.90;;;5.03;;
10465;SDS011;5280;42.600;23.556;2022-10-15T06:47:39;6.80;;;5.53;;
10465;SDS011;5280;42.600;23.556;2022-10-15T06:50:06;5.40;;;4.90;;
10465;SDS011;5280;42.600;23.556;2022-10-15T06:52:35;5.30;;;4.80;;
10465;SDS011;5280;42.600;23.556;2022-10-15T06:55:02;5.90;;;4.70;;
10465;SDS011;5280;42.600;23.556;2022-10-15T06:57:29;5.20;;;4.70;;
10465;SDS011;5280;42.600;23.556;2022-10-15T06:59:56;5.17;;;4.67;;
10465;SDS011;5280;42.600;23.556;2022-10-15T07:02:23;7.40;;;5.00;;
10465;SDS011;5280;42.600;23.556;2022-10-15T07:04:50;6.57;;;5.23;;
10465;SDS011;5280;42.600;23.556;2022-10-15T07:07:17;5.90;;;5.33;;
10465;SDS011;5280;42.600;23.556;2022-10-15T07:09:45;7.43;;;5.33;;
10465;SDS011;5280;42.600;23.556;2022-10-15T07:12:12;6.07;;;4.57;;
10465;SDS011;5280;42.600;23.556;2022-10-15T07:14:40;6.43;;;5.47;;
10465;SDS011;5280;42.600;23.556;2022-10-15T07:17:07;7.13;;;5.17;;
10465;SDS011;5280;42.600;23.556;2022-10-15T07:19:34;5.53;;;5.03;;
10465;SDS011;5280;42.600;23.556;2022-10-15T07:22:01;7.37;;;5.43;;
10465;SDS011;5280;42.600;23.556;2022-10-15T07:24:28;8.70;;;5.20;;
10465;SDS011;5280;42.600;23.556;2022-10-15T07:26:56;7.13;;;5.33;;
10465;SDS011;5280;42.600;23.556;2022-10-15T07:29:23;6.03;;;5.03;;
10465;SDS011;5280;42.600;23.556;2022-10-15T07:31:50;5.60;;;5.10;;
10465;SDS011;5280;42.600;23.556;2022-10-15T07:34:17;5.83;;;5.23;;
10465;SDS011;5280;42.600;23.556;2022-10-15T07:36:44;6.33;;;5.67;;
10465;SDS011;5280;42.600;23.556;2022-10-15T07:39:10;5.70;;;4.43;;
10465;SDS011;5280;42.600;23.556;2022-10-15T07:41:38;8.17;;;4.13;;
10465;SDS011;5280;42.600;23.556;2022-10-15T07:44:06;5.00;;;4.50;;
10465;SDS011;5280;42.600;23.556;2022-10-15T07:46:33;7.90;;;4.60;;
10465;SDS011;5280;42.600;23.556;2022-10-15T07:49:00;6.37;;;4.60;;
10465;SDS011;5280;42.600;23.556;2022-10-15T07:51:27;5.87;;;4.50;;
10465;SDS011;5280;42.600;23.556;2022-10-15T07:53:54;6.37;;;4.60;;
10465;SDS011;5280;42.600;23.556;2022-10-15T07:56:21;5.17;;;4.67;;
10465;SDS011;5280;42.600;23.556;2022-10-15T07:58:48;5.13;;;4.63;;
10465;SDS011;5280;42.600;23.556;2022-10-15T08:01:18;6.17;;;5.30;;
10465;SDS011;5280;42.600;23.556;2022-10-15T08:03:46;5.67;;;4.60;;
10465;SDS011;5280;42.600;23.556;2022-10-15T08:06:13;6.50;;;4.40;;
10465;SDS011;5280;42.600;23.556;2022-10-15T08:08:43;5.13;;;4.27;;
10465;SDS011;5280;42.600;23.556;2022-10-15T08:11:11;4.80;;;4.30;;
10465;SDS011;5280;42.600;23.556;2022-10-15T08:13:39;4.33;;;3.77;;
10465;SDS011;5280;42.600;23.556;2022-10-15T08:16:11;4.47;;;4.07;;
10465;SDS011;5280;42.600;23.556;2022-10-15T08:18:41;4.70;;;4.20;;
10465;SDS011;5280;42.600;23.556;2022-10-15T08:21:09;7.20;;;5.00;;
10465;SDS011;5280;42.600;23.556;2022-10-15T08:23:36;8.67;;;6.43;;
10465;SDS011;5280;42.600;23.556;2022-10-15T08:26:04;5.70;;;4.63;;
10465;SDS011;5280;42.600;23.556;2022-10-15T08:28:35;5.47;;;4.00;;
10465;SDS011;5280;42.600;23.556;2022-10-15T08:31:02;4.43;;;3.90;;
10465;SDS011;5280;42.600;23.556;2022-10-15T08:33:30;5.33;;;4.60;;
10465;SDS011;5280;42.600;23.556;2022-10-15T08:35:59;6.50;;;4.47;;
10465;SDS011;5280;42.600;23.556;2022-10-15T08:38:25;4.73;;;4.20;;
10465;SDS011;5280;42.600;23.556;2022-10-15T08:40:53;6.33;;;4.50;;
10465;SDS011;5280;42.600;23.556;2022-10-15T08:43:23;5.10;;;4.27;;
10465;SDS011;5280;42.600;23.556;2022-10-15T08:45:54;7.93;;;4.70;;
10465;SDS011;5280;42.600;23.556;2022-10-15T08:48:27;4.47;;;4.07;;
10465;SDS011;5280;42.600;23.556;2022-10-15T08:50:56;4.83;;;4.10;;
10465;SDS011;5280;42.600;23.556;2022-10-15T08:53:28;4.67;;;3.97;;
10465;SDS011;5280;42.600;23.556;2022-10-15T08:55:57;9.07;;;8.23;;
10465;SDS011;5280;42.600;23.556;2022-10-15T08:58:34;7.73;;;6.73;;
10465;SDS011;5280;42.600;23.556;2022-10-15T09:01:12;4.37;;;3.50;;
10465;SDS011;5280;42.600;23.556;2022-10-15T09:03:48;5.57;;;3.90;;
10465;SDS011;5280;42.600;23.556;2022-10-15T09:06:23;5.70;;;4.57;;
10465;SDS011;5280;42.600;23.556;2022-10-15T09:08:55;4.33;;;3.93;;
10465;SDS011;5280;42.600;23.556;2022-10-15T09:11:34;4.37;;;3.57;;
10465;SDS011;5280;42.600;23.556;2022-10-15T09:14:08;4.37;;;3.90;;
10465;SDS011;5280;42.600;23.556;2022-10-15T09:16:39;5.10;;;3.97;;
10465;SDS011;5280;42.600;23.556;2022-10-15T09:19:10;4.40;;;3.40;;
10465;SDS011;5280;42.600;23.556;2022-10-15T09:21:42;3.60;;;3.30;;
10465;SDS011;5280;42.600;23.556;2022-10-15T09:24:11;4.03;;;3.60;;
10465;SDS011;5280;42.600;23.556;2022-10-15T09:26:46;5.50;;;3.40;;
10465;SDS011;5280;42.600;23.556;2022-10-15T09:29:21;11.70;;;8.23;;
10465;SDS011;5280;42.600;23.556;2022-10-15T09:31:54;7.10;;;6.10;;
10465;SDS011;5280;42.600;23.556;2022-10-15T09:34:30;5.40;;;3.60;;
10465;SDS011;5280;42.600;23.556;2022-10-15T09:37:06;9.73;;;7.53;;
10465;SDS011;5280;42.600;23.556;2022-10-15T09:39:43;3.97;;;3.67;;
10465;SDS011;5280;42.600;23.556;2022-10-15T09:42:23;5.00;;;4.50;;
10465;SDS011;5280;42.600;23.556;2022-10-15T09:44:56;3.90;;;3.60;;
10465;SDS011;5280;42.600;23.556;2022-10-15T09:47:26;4.87;;;3.10;;
10465;SDS011;5280;42.600;23.556;2022-10-15T09:49:55;7.07;;;3.40;;
10465;SDS011;5280;42.600;23.556;2022-10-15T09:52:26;3.90;;;3.03;;
10465;SDS011;5280;42.600;23.556;2022-10-15T09:55:06;3.50;;;3.20;;
10465;SDS011;5280;42.600;23.556;2022-10-15T09:57:57;3.93;;;3.10;;
10465;SDS011;5280;42.600;23.556;2022-10-15T10:00:42;3.07;;;2.83;;
10465;SDS011;5280;42.600;23.556;2022-10-15T10:03:20;4.87;;;3.60;;
10465;SDS011;5280;42.600;23.556;2022-10-15T10:05:47;3.37;;;3.03;;
10465;SDS011;5280;42.600;23.556;2022-10-15T10:08:17;3.60;;;3.00;;
10465;SDS011;5280;42.600;23.556;2022-10-15T10:10:52;3.40;;;3.10;;
10465;SDS011;5280;42.600;23.556;2022-10-15T10:13:22;4.20;;;3.80;;
10465;SDS011;5280;42.600;23.556;2022-10-15T10:15:50;5.97;;;4.07;;
10465;SDS011;5280;42.600;23.556;2022-10-15T10:18:20;3.73;;;3.43;;
10465;SDS011;5280;42.600;23.556;2022-10-15T10:20:52;4.00;;;3.37;;
10465;SDS011;5280;42.600;23.556;2022-10-15T10:23:27;4.77;;;4.27;;
10465;SDS011;5280;42.600;23.556;2022-10-15T10:25:59;3.27;;;2.97;;
10465;SDS011;5280;42.600;23.556;2022-10-15T10:28:26;5.77;;;4.23;;
10465;SDS011;5280;42.600;23.556;2022-10-15T10:31:01;3.60;;;2.83;;
10465;SDS011;5280;42.600;23.556;2022-10-15T10:33:32;3.20;;;2.60;;
10465;SDS011;5280;42.600;23.556;2022-10-15T10:36:03;3.23;;;2.93;;
10465;SDS011;5280;42.600;23.556;2022-10-15T10:38:33;3.40;;;2.83;;
10465;SDS011;5280;42.600;23.556;2022-10-15T10:41:08;6.47;;;3.40;;
10465;SDS011;5280;42.600;23.556;2022-10-15T10:43:37;3.83;;;3.03;;
10465;SDS011;5280;42.600;23.556;2022-10-15T10:46:08;4.90;;;3.13;;
10465;SDS011;5280;42.600;23.556;2022-10-15T10:48:43;3.50;;;3.20;;
10465;SDS011;5280;42.600;23.556;2022-10-15T10:51:12;2.97;;;2.63;;
10465;SDS011;5280;42.600;23.556;2022-10-15T10:53:45;6.33;;;3.57;;
10465;SDS011;5280;42.600;23.556;2022-10-15T10:56:15;3.37;;;3.07;;
10465;SDS011;5280;42.600;23.556;2022-10-15T10:58:47;6.07;;;3.77;;
10465;SDS011;5280;42.600;23.556;2022-10-15T11:01:23;4.57;;;4.27;;
10465;SDS011;5280;42.600;23.556;2022-10-15T11:03:49;5.73;;;4.47;;
10465;SDS011;5280;42.600;23.556;2022-10-15T11:06:19;5.40;;;3.00;;
10465;SDS011;5280;42.600;23.556;2022-10-15T11:08:59;5.83;;;5.07;;
10465;SDS011;5280;42.600;23.556;2022-10-15T11:11:32;3.93;;;3.10;;
10465;SDS011;5280;42.600;23.556;2022-10-15T11:14:10;4.83;;;3.17;;
10465;SDS011;5280;42.600;23.556;2022-10-15T11:16:47;4.47;;;3.63;;
10465;SDS011;5280;42.600;23.556;2022-10-15T11:19:24;2.83;;;2.63;;
10465;SDS011;5280;42.600;23.556;2022-10-15T11:22:07;3.63;;;2.90;;
10465;SDS011;5280;42.600;23.556;2022-10-15T11:24:56;3.27;;;3.00;;
10465;SDS011;5280;42.600;23.556;2022-10-15T11:27:36;3.23;;;2.97;;
10465;SDS011;5280;42.600;23.556;2022-10-15T11:33:21;4.43;;;2.87;;
10465;SDS011;5280;42.600;23.556;2022-10-15T11:35:59;5.20;;;3.00;;
10465;SDS011;5280;42.600;23.556;2022-10-15T11:38:41;6.53;;;2.93;;
10465;SDS011;5280;42.600;23.556;2022-10-15T11:41:18;3.20;;;2.67;;
10465;SDS011;5280;42.600;23.556;2022-10-15T11:44:05;3.00;;;2.80;;
10465;SDS011;5280;42.600;23.556;2022-10-15T11:46:46;3.10;;;2.80;;
10465;SDS011;5280;42.600;23.556;2022-10-15T11:49:26;2.43;;;2.23;;
10465;SDS011;5280;42.600;23.556;2022-10-15T11:52:12;3.87;;;2.63;;
10465;SDS011;5280;42.600;23.556;2022-10-15T11:54:53;3.50;;;2.73;;
10465;SDS011;5280;42.600;23.556;2022-10-15T11:57:28;4.77;;;2.87;;
10465;SDS011;5280;42.600;23.556;2022-10-15T11:59:59;2.77;;;2.57;;
10465;SDS011;5280;42.600;23.556;2022-10-15T12:02:32;2.80;;;2.43;;
10465;SDS011;5280;42.600;23.556;2022-10-15T12:05:04;3.63;;;2.30;;
10465;SDS011;5280;42.600;23.556;2022-10-15T12:07:35;3.23;;;2.93;;
10465;SDS011;5280;42.600;23.556;2022-10-15T12:10:08;2.30;;;2.10;;
10465;SDS011;5280;42.600;23.556;2022-10-15T12:12:58;4.10;;;2.97;;
10465;SDS011;5280;42.600;23.556;2022-10-15T12:15:30;8.17;;;4.17;;
10465;SDS011;5280;42.600;23.556;2022-10-15T12:18:09;21.10;;;16.90;;
10465;SDS011;5280;42.600;23.556;2022-10-15T12:20:42;3.83;;;2.70;;
10465;SDS011;5280;42.600;23.556;2022-10-15T12:23:21;3.73;;;2.40;;
10465;SDS011;5280;42.600;23.556;2022-10-15T12:25:50;3.20;;;3.00;;
10465;SDS011;5280;42.600;23.556;2022-10-15T12:28:20;5.10;;;4.30;;
10465;SDS011;5280;42.600;23.556;2022-10-15T12:30:52;3.27;;;2.57;;
10465;SDS011;5280;42.600;23.556;2022-10-15T12:33:26;3.07;;;2.73;;
10465;SDS011;5280;42.600;23.556;2022-10-15T12:35:58;2.40;;;2.20;;
10465;SDS011;5280;42.600;23.556;2022-10-15T12:38:27;3.60;;;2.20;;
10465;SDS011;5280;42.600;23.556;2022-10-15T12:40:58;2.80;;;2.60;;
10465;SDS011;5280;42.600;23.556;2022-10-15T12:43:29;3.37;;;2.70;;
10465;SDS011;5280;42.600;23.556;2022-10-15T12:45:59;3.17;;;2.60;;
10465;SDS011;5280;42.600;23.556;2022-10-15T12:48:28;3.17;;;2.23;;
10465;SDS011;5280;42.600;23.556;2022-10-15T12:53:55;3.73;;;2.30;;
10465;SDS011;5280;42.600;23.556;2022-10-15T12:56:24;2.27;;;2.07;;
10465;SDS011;5280;42.600;23.556;2022-10-15T12:59:03;2.60;;;2.30;;
10465;SDS011;5280;42.600;23.556;2022-10-15T13:02:00;4.13;;;2.77;;
10465;SDS011;5280;42.600;23.556;2022-10-15T13:04:35;3.03;;;2.83;;
10465;SDS011;5280;42.600;23.556;2022-10-15T13:07:03;2.80;;;2.20;;
10465;SDS011;5280;42.600;23.556;2022-10-15T13:09:31;2.47;;;1.93;;
10465;SDS011;5280;42.600;23.556;2022-10-15T13:11:58;2.93;;;2.20;;
10465;SDS011;5280;42.600;23.556;2022-10-15T13:14:33;3.63;;;2.20;;
10465;SDS011;5280;42.600;23.556;2022-10-15T13:17:12;2.53;;;2.00;;
10465;SDS011;5280;42.600;23.556;2022-10-15T13:19:45;3.37;;;1.90;;
10465;SDS011;5280;42.600;23.556;2022-10-15T13:22:19;4.40;;;1.90;;
10465;SDS011;5280;42.600;23.556;2022-10-15T13:24:48;3.80;;;1.90;;
10465;SDS011;5280;42.600;23.556;2022-10-15T13:27:15;2.30;;;1.77;;
10465;SDS011;5280;42.600;23.556;2022-10-15T13:29:57;1.90;;;1.70;;
10465;SDS011;5280;42.600;23.556;2022-10-15T13:32:25;2.33;;;2.00;;
10465;SDS011;5280;42.600;23.556;2022-10-15T13:34:54;3.83;;;1.80;;
10465;SDS011;5280;42.600;23.556;2022-10-15T13:37:23;3.07;;;2.10;;
10465;SDS011;5280;42.600;23.556;2022-10-15T13:39:55;2.50;;;2.07;;
10465;SDS011;5280;42.600;23.556;2022-10-15T13:42:24;3.07;;;2.10;;
10465;SDS011;5280;42.600;23.556;2022-10-15T13:44:56;2.50;;;2.00;;
10465;SDS011;5280;42.600;23.556;2022-10-15T13:47:26;3.20;;;2.03;;
10465;SDS011;5280;42.600;23.556;2022-10-15T13:50:15;2.13;;;1.90;;
10465;SDS011;5280;42.600;23.556;2022-10-15T13:52:45;8.27;;;2.00;;
10465;SDS011;5280;42.600;23.556;2022-10-15T13:55:15;2.63;;;1.90;;
10465;SDS011;5280;42.600;23.556;2022-10-15T13:57:44;2.80;;;1.83;;
10465;SDS011;5280;42.600;23.556;2022-10-15T14:00:23;1.93;;;1.80;;
10465;SDS011;5280;42.600;23.556;2022-10-15T14:03:05;4.37;;;2.37;;
10465;SDS011;5280;42.600;23.556;2022-10-15T14:05:34;3.27;;;2.30;;
10465;SDS011;5280;42.600;23.556;2022-10-15T14:08:00;1.83;;;1.73;;
10465;SDS011;5280;42.600;23.556;2022-10-15T14:10:27;1.77;;;1.67;;
10465;SDS011;5280;42.600;23.556;2022-10-15T14:12:54;2.23;;;2.00;;
10465;SDS011;5280;42.600;23.556;2022-10-15T14:15:41;2.80;;;1.80;;
10465;SDS011;5280;42.600;23.556;2022-10-15T14:18:11;2.57;;;1.83;;
10465;SDS011;5280;42.600;23.556;2022-10-15T14:20:43;2.30;;;1.93;;
10465;SDS011;5280;42.600;23.556;2022-10-15T14:23:19;2.93;;;2.10;;
10465;SDS011;5280;42.600;23.556;2022-10-15T14:25:52;2.67;;;1.90;;
10465;SDS011;5280;42.600;23.556;2022-10-15T14:28:21;4.43;;;2.30;;
10465;SDS011;5280;42.600;23.556;2022-10-15T14:30:50;2.20;;;2.07;;
10465;SDS011;5280;42.600;23.556;2022-10-15T14:33:28;3.03;;;1.77;;
10465;SDS011;5280;42.600;23.556;2022-10-15T14:36:03;3.03;;;1.93;;
10465;SDS011;5280;42.600;23.556;2022-10-15T14:38:34;5.33;;;2.00;;
10465;SDS011;5280;42.600;23.556;2022-10-15T14:41:02;2.20;;;2.00;;
10465;SDS011;5280;42.600;23.556;2022-10-15T14:43:33;4.70;;;2.30;;
10465;SDS011;5280;42.600;23.556;2022-10-15T14:46:03;2.77;;;2.10;;
10465;SDS011;5280;42.600;23.556;2022-10-15T14:48:33;11.23;;;5.90;;
10465;SDS011;5280;42.600;23.556;2022-10-15T14:51:02;4.67;;;2.87;;
10465;SDS011;5280;42.600;23.556;2022-10-15T14:53:31;2.33;;;2.10;;
10465;SDS011;5280;42.600;23.556;2022-10-15T14:56:02;2.97;;;2.33;;
10465;SDS011;5280;42.600;23.556;2022-10-15T14:58:32;2.40;;;2.20;;
10465;SDS011;5280;42.600;23.556;2022-10-15T15:01:00;3.57;;;2.80;;
10465;SDS011;5280;42.600;23.556;2022-10-15T15:03:36;4.40;;;2.40;;
10465;SDS011;5280;42.600;23.556;2022-10-15T15:06:05;2.60;;;2.30;;
10465;SDS011;5280;42.600;23.556;2022-10-15T15:08:32;5.50;;;4.00;;
10465;SDS011;5280;42.600;23.556;2022-10-15T15:10:59;3.53;;;2.33;;
10465;SDS011;5280;42.600;23.556;2022-10-15T15:13:28;3.37;;;3.03;;
10465;SDS011;5280;42.600;23.556;2022-10-15T15:15:56;5.13;;;4.63;;